Startpagina
METAR-TAF:

METAR-TAF

Vliegvelden :

OR Tambo International Airport

Johannesburg, Zuid-Afrika

breedte: 26-08S, lengte: 028-14E, hoogte: 1694 m

Actueel weer

Dit bericht is 47 minuten geleden gemaakt, om 19:00 UTC
Wind 7 kt uit het westnoordwesten
Temperatuur 13°C
Vochtigheid 38%
Druk 1027 hPa
Zicht 10 km of meer
geen wolken onder 1500 m en geen cumulonimbus

METAR: FAOR 231900Z 29007KT CAVOK 13/M01 Q1027 NOSIG

Tijdstip: 21:47 (19:47 UTC)

Verwachting

Dit bericht is 3 uur en het 47 minuten geleden gemaakt, om 16:00 UTC
Verwachting geldig van 23 om 18 UTC tot 24 om 24 UTC
Wind 8 kt uit het westnoordwesten
Zicht 10 km of meer
geen wolken onder 1500 m en geen cumulonimbus
Wijzigt naar
van 24 om 01 UTC tot 24 om 03 UTC
Wind 3 kt uit variabele richting
Wijzigt naar
van 24 om 05 UTC tot 24 om 07 UTC
Wind 8 kt uit het zuiden

TAF: FAOR 231600Z 2318/2424 30008KT CAVOK BECMG 2401/2403 VRB03KT BECMG 2405/2407 19008KT TX18/2412Z TN09/2405Z

Waarnemingen en weersverwachtingen van meer dan 4000 vliegvelden (METAR en TAF).

De beschikbare stations zijn de gele en rode punten op de kaart.

Ga met uw muis naar het station om de naam te zien.

Klik dan om waarnemingen en weersverwachtingen te zien.

kaart wijzigen: klik op de groene knoppen met een zwart kruis om in te zoomen, op de groene knop met een streepje om uit te zoomen of op de groene pijlen voor aangrenzende kaarten.


METAR-TAF: